Time;durP1;ratioP1;P1;durP2;ratioP2;P2;SDS_P1;SDS_P2;PMS_P1;PMS_P2;Temp;Humidity;BMP_temperature;BMP_pressure;BME280_temperature;BME280_humidity;BME280_pressure;Samples;Min_cycle;Max_cycle;Signal;HPM_P1;HPM_P2
2024/01/23 00:00:40;;;;;;;15.40;5.95;;;;;;;8.05;71.06;101197.53;4095611;28;20512;-67
2024/01/23 00:02:43;;;;;;;13.38;4.97;;;;;;;7.96;71.21;101192.88;4103637;28;20520;-68
2024/01/23 00:04:46;;;;;;;9.10;3.00;;;;;;;7.99;70.47;101185.22;4103914;28;20046;-68
2024/01/23 00:06:49;;;;;;;10.27;2.67;;;;;;;8.05;69.69;101205.28;4098280;29;20063;-68
2024/01/23 00:08:53;;;;;;;9.57;3.47;;;;;;;8.13;70.02;101200.38;4097105;29;20047;-68
2024/01/23 00:10:56;;;;;;;11.10;2.90;;;;;;;8.12;70.25;101202.09;4096562;28;20051;-68
2024/01/23 00:13:00;;;;;;;11.65;2.72;;;;;;;8.10;69.68;101202.84;4098151;28;20047;-67
2024/01/23 00:15:03;;;;;;;10.15;2.38;;;;;;;8.08;69.27;101199.34;4098715;29;20130;-68
2024/01/23 00:17:06;;;;;;;13.98;3.10;;;;;;;8.04;69.18;101186.28;4099173;28;20042;-68
2024/01/23 00:19:09;;;;;;;11.40;2.88;;;;;;;8.06;69.46;101200.97;4097617;28;20043;-68
2024/01/23 00:21:12;;;;;;;15.57;3.42;;;;;;;8.04;69.31;101204.41;4097193;28;20054;-68
2024/01/23 00:23:14;;;;;;;11.55;2.95;;;;;;;8.11;68.88;101212.41;4097257;29;20047;-68
2024/01/23 00:25:18;;;;;;;13.40;3.08;;;;;;;8.15;68.67;101211.69;4097317;28;20071;-68
2024/01/23 00:27:21;;;;;;;12.98;3.20;;;;;;;8.17;68.50;101210.03;4096735;29;20080;-67
2024/01/23 00:29:24;;;;;;;16.95;2.88;;;;;;;8.13;68.06;101205.56;4103174;28;20050;-68
2024/01/23 00:31:27;;;;;;;10.48;2.13;;;;;;;8.12;68.29;101203.78;4097053;28;20051;-68
2024/01/23 00:33:29;;;;;;;13.43;3.28;;;;;;;8.11;68.51;101209.81;4097659;28;20047;-68
2024/01/23 00:35:33;;;;;;;16.35;2.78;;;;;;;8.14;68.38;101210.78;4101503;28;20098;-68
2024/01/23 00:37:35;;;;;;;8.90;2.20;;;;;;;8.18;67.99;101215.25;4100362;28;20129;-68
2024/01/23 00:39:39;;;;;;;9.70;2.15;;;;;;;8.17;67.47;101220.38;4101404;29;20122;-68
2024/01/23 00:41:43;;;;;;;9.30;2.47;;;;;;;8.16;67.42;101206.56;4097501;28;20050;-68
2024/01/23 00:43:46;;;;;;;10.45;2.75;;;;;;;8.17;67.08;101226.44;4106803;28;20031;-68
2024/01/23 00:45:50;;;;;;;7.97;1.75;;;;;;;8.14;67.59;101215.09;4100311;29;20413;-68
2024/01/23 00:47:53;;;;;;;10.93;2.63;;;;;;;8.16;67.19;101228.97;4085202;29;20043;-68
2024/01/23 00:49:55;;;;;;;14.38;2.70;;;;;;;8.19;66.87;101218.72;4100451;28;20074;-68
2024/01/23 00:51:58;;;;;;;12.02;2.50;;;;;;;8.17;66.52;101223.84;4097971;29;20075;-68
2024/01/23 00:54:02;;;;;;;13.23;2.53;;;;;;;8.17;66.57;101226.44;4100628;28;20054;-68
2024/01/23 00:56:05;;;;;;;10.93;2.47;;;;;;;8.16;66.38;101228.97;4100019;28;20039;-68
2024/01/23 00:58:11;;;;;;;11.38;2.90;;;;;;;8.14;66.59;101210.78;4100029;29;20035;-67
2024/01/23 01:00:15;;;;;;;10.40;2.40;;;;;;;8.11;66.46;101227.94;4098355;28;20061;-67
2024/01/23 01:02:17;;;;;;;9.45;1.77;;;;;;;8.14;66.52;101228.03;4100667;29;20043;-68
2024/01/23 01:04:20;;;;;;;7.18;1.92;;;;;;;8.19;65.35;101218.72;4098524;28;20121;-68
2024/01/23 01:06:23;;;;;;;8.57;2.38;;;;;;;8.17;65.36;101228.16;4108957;28;20035;-69
2024/01/23 01:08:26;;;;;;;11.27;2.40;;;;;;;8.18;64.79;101219.56;4100114;28;20051;-69
2024/01/23 01:10:29;;;;;;;10.77;2.60;;;;;;;8.16;64.88;101224.69;4091224;28;20070;-69
2024/01/23 01:12:33;;;;;;;10.38;2.78;;;;;;;8.22;64.50;101229.22;4100449;28;20051;-69
2024/01/23 01:14:38;;;;;;;8.88;2.15;;;;;;;8.21;64.56;101223.13;4098111;28;20214;-69
2024/01/23 01:16:41;;;;;;;11.32;2.10;;;;;;;8.23;63.77;101241.31;4099209;28;20086;-68
2024/01/23 01:18:44;;;;;;;9.68;1.88;;;;;;;8.19;63.92;101242.03;4100923;28;20685;-68
2024/01/23 01:20:48;;;;;;;7.20;2.45;;;;;;;8.14;64.31;101244.47;4101926;28;20039;-68
2024/01/23 01:22:51;;;;;;;9.70;2.45;;;;;;;8.15;64.16;101243.63;4113412;28;20049;-69
2024/01/23 01:24:54;;;;;;;9.32;2.08;;;;;;;8.13;63.88;101249.59;4097793;28;20035;-68
2024/01/23 01:26:57;;;;;;;10.90;2.17;;;;;;;8.08;64.12;101254.59;4100575;29;20040;-68
2024/01/23 01:29:00;;;;;;;15.30;2.97;;;;;;;8.08;63.87;101251.13;4100917;28;20046;-68
2024/01/23 01:31:04;;;;;;;7.22;2.08;;;;;;;8.13;63.76;101259.94;4098727;29;20043;-68
2024/01/23 01:33:06;;;;;;;11.95;2.60;;;;;;;8.13;64.47;101265.13;4101492;29;20043;-68
2024/01/23 01:35:10;;;;;;;9.98;1.98;;;;;;;8.10;63.85;101255.53;4100909;28;20512;-68
2024/01/23 01:37:13;;;;;;;7.50;2.00;;;;;;;8.12;64.07;101259.06;4100748;29;20395;-68
2024/01/23 01:39:16;;;;;;;9.30;2.60;;;;;;;8.11;63.82;101265.06;4099519;29;20051;-70
2024/01/23 01:41:19;;;;;;;6.95;2.35;;;;;;;8.09;64.15;101265.81;4099208;29;20063;-68
2024/01/23 01:43:27;;;;;;;9.05;2.28;;;;;;;8.07;64.13;101259.72;4101562;28;20452;-69
2024/01/23 01:45:31;;;;;;;11.73;2.20;;;;;;;8.03;64.71;101259.63;4097039;28;20047;-70
2024/01/23 01:47:36;;;;;;;7.68;1.95;;;;;;;8.10;64.38;101255.53;4100517;29;20053;-69
2024/01/23 01:49:40;;;;;;;12.80;2.22;;;;;;;8.03;64.45;101263.88;4100528;29;20035;-69
2024/01/23 01:51:44;;;;;;;8.10;2.13;;;;;;;8.03;64.50;101267.38;4099775;29;20035;-69
2024/01/23 01:53:48;;;;;;;12.77;2.03;;;;;;;7.96;64.84;101269.69;4091278;29;20205;-68
2024/01/23 01:55:51;;;;;;;10.90;2.50;;;;;;;7.94;64.53;101274.78;4097266;28;20031;-69
2024/01/23 01:57:54;;;;;;;8.48;1.92;;;;;;;7.96;64.51;101262.78;4099314;29;20294;-69
2024/01/23 01:59:56;;;;;;;12.90;3.25;;;;;;;7.96;64.99;101269.69;4099515;29;20126;-69
2024/01/23 02:01:59;;;;;;;12.48;2.17;;;;;;;7.96;64.94;101265.38;4099924;28;20050;-69
2024/01/23 02:04:03;;;;;;;10.93;2.83;;;;;;;7.92;65.21;101271.25;4098332;29;20040;-68
2024/01/23 02:06:07;;;;;;;8.98;2.38;;;;;;;7.98;65.10;101260.25;4098990;29;20548;-69
2024/01/23 02:08:10;;;;;;;11.77;2.00;;;;;;;7.97;65.33;101269.75;4101082;28;20147;-69
2024/01/23 02:10:17;;;;;;;10.05;2.40;;;;;;;7.92;65.49;101273.84;4098295;29;20039;-69
2024/01/23 02:12:20;;;;;;;9.60;2.60;;;;;;;7.94;65.47;101274.78;4100205;29;20098;-69
2024/01/23 02:14:23;;;;;;;11.20;2.38;;;;;;;7.83;65.95;101270.91;4098931;29;20039;-69
2024/01/23 02:16:26;;;;;;;14.13;3.08;;;;;;;7.88;65.89;101281.44;4100141;28;20047;-70
2024/01/23 02:18:29;;;;;;;11.45;2.88;;;;;;;7.90;65.96;101282.38;4101100;28;20475;-69
2024/01/23 02:20:33;;;;;;;16.38;2.58;;;;;;;7.91;66.36;101278.97;4098562;28;20070;-70
2024/01/23 02:22:36;;;;;;;9.05;2.60;;;;;;;7.89;66.60;101280.63;4097836;28;20042;-69
2024/01/23 02:24:40;;;;;;;11.30;2.15;;;;;;;7.92;66.54;101276.44;4098141;29;20134;-69
2024/01/23 02:26:43;;;;;;;10.18;2.40;;;;;;;7.91;66.60;101281.56;4094905;29;20043;-69
2024/01/23 02:28:46;;;;;;;11.20;2.13;;;;;;;7.87;66.45;101272.81;4099723;28;20126;-69
2024/01/23 02:30:48;;;;;;;12.75;3.60;;;;;;;7.90;66.41;101278.09;4081576;29;20048;-69
2024/01/23 02:32:51;;;;;;;11.80;2.42;;;;;;;7.86;66.92;101290.03;4098618;28;20043;-69
2024/01/23 02:34:54;;;;;;;11.10;2.70;;;;;;;7.86;67.34;101302.09;4099726;28;20489;-69
2024/01/23 02:36:57;;;;;;;10.20;2.90;;;;;;;7.88;67.40;101309.94;4099951;28;20043;-68
2024/01/23 02:39:00;;;;;;;15.25;2.42;;;;;;;7.81;68.22;101306.19;4100497;29;20138;-69
2024/01/23 02:41:06;;;;;;;14.80;2.85;;;;;;;7.88;68.82;101300.44;4098367;28;20261;-68
2024/01/23 02:43:09;;;;;;;11.38;1.92;;;;;;;7.75;70.20;101293.91;4098886;28;20035;-68
2024/01/23 02:45:12;;;;;;;6.30;1.73;;;;;;;7.54;70.60;101314.66;4099550;29;20043;-68
2024/01/23 02:47:15;;;;;;;9.48;1.83;;;;;;;7.44;71.13;101295.28;4099701;28;20409;-69
2024/01/23 02:49:18;;;;;;;7.78;1.63;;;;;;;7.33;72.01;101317.25;4098019;29;20166;-68
2024/01/23 02:51:22;;;;;;;6.28;1.60;;;;;;;7.30;72.69;101310.25;4099729;29;20497;-68
2024/01/23 02:53:25;;;;;;;7.70;1.50;;;;;;;7.25;73.25;101310.88;4099738;28;20591;-68
2024/01/23 02:55:28;;;;;;;5.75;1.35;;;;;;;7.14;73.95;101311.31;4099519;29;20134;-69
2024/01/23 02:57:32;;;;;;;11.10;2.00;;;;;;;7.06;74.41;101314.38;4095360;28;20130;-70
2024/01/23 02:59:35;;;;;;;7.97;1.88;;;;;;;6.99;75.71;101321.91;4099487;28;20047;-69
2024/01/23 03:01:38;;;;;;;12.65;2.15;;;;;;;6.95;76.21;101322.56;4097647;28;20051;-69
2024/01/23 03:03:41;;;;;;;15.23;2.53;;;;;;;6.91;76.55;101320.66;4099331;28;20043;-68
2024/01/23 03:05:44;;;;;;;8.52;2.03;;;;;;;6.91;77.47;101324.97;4098397;28;20041;-68
2024/01/23 03:07:47;;;;;;;12.23;2.75;;;;;;;6.94;77.42;101319.94;4097794;29;20043;-68
2024/01/23 03:09:50;;;;;;;7.25;2.03;;;;;;;6.94;77.26;101319.94;4099178;28;20036;-69
2024/01/23 03:11:53;;;;;;;11.73;2.42;;;;;;;6.97;76.76;101309.72;4097691;28;20050;-70
2024/01/23 03:13:58;;;;;;;12.60;2.30;;;;;;;6.98;77.07;101338.22;4099297;28;20053;-70
2024/01/23 03:16:00;;;;;;;9.85;2.00;;;;;;;7.01;76.90;101329.72;4098044;29;20046;-69
2024/01/23 03:18:03;;;;;;;15.13;2.58;;;;;;;7.04;77.20;101331.53;4106661;28;20066;-69
2024/01/23 03:20:07;;;;;;;10.80;2.08;;;;;;;7.05;77.28;101344.50;4100810;28;20469;-69
2024/01/23 03:22:11;;;;;;;10.05;2.25;;;;;;;6.99;77.21;101327.06;4098079;28;20055;-69
2024/01/23 03:24:14;;;;;;;10.30;2.00;;;;;;;7.00;76.92;101340.88;4097581;28;20039;-69
2024/01/23 03:26:16;;;;;;;14.07;2.83;;;;;;;7.03;77.18;101342.69;4096821;28;20451;-69
2024/01/23 03:28:19;;;;;;;12.68;2.95;;;;;;;6.97;76.95;101359.69;4098731;28;20102;-69
2024/01/23 03:30:30;;;;;;;8.27;2.05;;;;;;;6.99;76.65;101359.75;4097581;29;20102;-69
2024/01/23 03:32:33;;;;;;;14.35;3.05;;;;;;;7.00;77.03;101346.03;4089769;28;20039;-69
2024/01/23 03:34:35;;;;;;;18.15;3.92;;;;;;;6.92;76.68;101347.38;4107627;28;20078;-70
2024/01/23 03:36:39;;;;;;;19.40;3.97;;;;;;;6.97;76.31;101345.91;4105399;28;20031;-69
2024/01/23 03:38:42;;;;;;;11.13;2.92;;;;;;;6.95;76.47;101342.34;4097112;29;20231;-69
2024/01/23 03:40:44;;;;;;;12.43;2.60;;;;;;;6.99;76.15;101342.56;4098574;29;20050;-69
2024/01/23 03:42:49;;;;;;;16.60;4.10;;;;;;;6.95;75.56;101330.31;4095207;28;20067;-69
2024/01/23 03:44:51;;;;;;;19.88;2.70;;;;;;;7.00;75.53;101348.63;4094804;29;20126;-69
2024/01/23 03:46:57;;;;;;;12.95;3.00;;;;;;;7.07;74.86;101358.41;4098577;28;20039;-70
2024/01/23 03:49:00;;;;;;;15.13;3.60;;;;;;;7.09;75.04;101363.63;4098603;28;20114;-69
2024/01/23 03:51:02;;;;;;;12.90;2.95;;;;;;;7.13;74.20;101373.31;4094314;28;20035;-69
2024/01/23 03:53:05;;;;;;;17.33;3.88;;;;;;;7.12;74.36;101368.94;4097989;29;20051;-69
2024/01/23 03:55:08;;;;;;;19.50;3.88;;;;;;;7.13;73.74;101378.47;4104549;28;20075;-69
2024/01/23 03:57:11;;;;;;;14.55;2.97;;;;;;;7.15;74.01;101377.72;4095393;28;20050;-69
2024/01/23 03:59:14;;;;;;;12.35;3.08;;;;;;;7.19;73.72;101388.19;4098553;28;20047;-70
2024/01/23 04:01:17;;;;;;;16.33;3.60;;;;;;;7.18;73.80;101397.63;4097067;29;20433;-69
2024/01/23 04:03:21;;;;;;;16.65;3.08;;;;;;;7.24;73.81;101392.75;4097157;29;20062;-69
2024/01/23 04:05:24;;;;;;;18.05;3.30;;;;;;;7.23;73.30;101392.66;4096586;29;20506;-70
2024/01/23 04:07:28;;;;;;;14.73;2.75;;;;;;;7.25;73.51;101384.16;4098099;29;20047;-70
2024/01/23 04:09:31;;;;;;;13.50;3.27;;;;;;;7.24;73.69;101394.44;4091355;28;20039;-70
2024/01/23 04:11:34;;;;;;;14.45;3.38;;;;;;;7.21;73.46;101392.59;4100242;28;20302;-70
2024/01/23 04:13:37;;;;;;;13.13;2.67;;;;;;;7.20;72.93;101382.19;4098251;28;20138;-69
2024/01/23 04:15:40;;;;;;;15.88;3.47;;;;;;;7.12;72.46;101402.56;4099211;28;20142;-70
2024/01/23 04:17:43;;;;;;;11.27;2.60;;;;;;;7.13;72.15;101417.25;4097946;29;20069;-70
2024/01/23 04:19:47;;;;;;;10.77;2.72;;;;;;;7.09;72.45;101423.13;4099193;28;20043;-70
2024/01/23 04:21:50;;;;;;;12.80;3.20;;;;;;;7.11;72.70;101417.19;4097784;28;20040;-70
2024/01/23 04:23:52;;;;;;;12.27;2.95;;;;;;;7.13;72.99;101425.03;4099083;29;20098;-69
2024/01/23 04:25:55;;;;;;;16.40;2.72;;;;;;;7.13;72.74;101445.72;4099186;28;20478;-69
2024/01/23 04:27:58;;;;;;;9.98;2.60;;;;;;;7.18;73.08;101438.16;4098224;29;20497;-70
2024/01/23 04:30:01;;;;;;;15.15;2.70;;;;;;;7.14;72.32;101443.19;4097810;29;20050;-69
2024/01/23 04:32:05;;;;;;;10.30;2.80;;;;;;;7.10;72.90;101451.63;4096228;28;20047;-69
2024/01/23 04:34:08;;;;;;;11.05;2.35;;;;;;;7.14;72.36;101450.94;4095744;28;20122;-67
2024/01/23 04:36:12;;;;;;;9.13;2.45;;;;;;;7.14;72.72;101461.28;4095365;28;20134;-68
2024/01/23 04:38:15;;;;;;;13.50;2.60;;;;;;;7.11;72.64;101456.00;4097376;28;20047;-69
2024/01/23 04:40:18;;;;;;;10.63;2.47;;;;;;;7.11;72.97;101468.00;4098127;28;20509;-69
2024/01/23 04:42:21;;;;;;;12.43;3.45;;;;;;;7.08;72.22;101463.59;4096187;28;20047;-69
2024/01/23 04:44:24;;;;;;;12.48;2.88;;;;;;;7.06;72.55;101470.41;4096674;29;20485;-69
2024/01/23 04:46:27;;;;;;;8.73;3.00;;;;;;;7.08;72.75;101473.03;4090252;28;20130;-68
2024/01/23 04:48:30;;;;;;;13.45;2.72;;;;;;;7.04;72.49;101473.72;4088085;29;20043;-68
2024/01/23 04:50:33;;;;;;;16.65;2.85;;;;;;;7.03;72.33;101478.00;4110105;28;20038;-68
2024/01/23 04:52:37;;;;;;;8.20;2.33;;;;;;;7.07;72.39;101476.47;4098365;28;20139;-68
2024/01/23 04:54:41;;;;;;;12.27;2.75;;;;;;;7.04;72.73;101497.91;4096068;28;20143;-68
2024/01/23 04:56:47;;;;;;;11.52;2.75;;;;;;;7.07;72.97;101487.69;4098505;28;20039;-68
2024/01/23 04:58:49;;;;;;;14.38;2.78;;;;;;;7.05;72.54;101488.44;4097607;28;20047;-68
2024/01/23 05:00:51;;;;;;;11.70;2.65;;;;;;;7.03;72.78;101500.41;4097820;28;20130;-68
2024/01/23 05:02:54;;;;;;;12.10;2.97;;;;;;;6.96;72.89;101507.00;4091879;28;20071;-68
2024/01/23 05:04:57;;;;;;;16.20;3.70;;;;;;;6.89;72.55;101505.84;4088955;28;20043;-68
2024/01/23 05:07:00;;;;;;;9.63;2.80;;;;;;;6.86;72.90;101510.84;4095605;28;20130;-68
2024/01/23 05:09:04;;;;;;;21.00;2.85;;;;;;;6.84;73.04;101507.31;4099370;28;20047;-68
2024/01/23 05:11:08;;;;;;;9.23;2.72;;;;;;;6.80;73.26;101510.56;4098472;29;20045;-68
2024/01/23 05:13:11;;;;;;;16.38;3.22;;;;;;;6.76;73.45;101514.72;4097892;28;20183;-68
2024/01/23 05:15:14;;;;;;;11.63;2.22;;;;;;;6.73;73.02;101505.91;4096330;29;20478;-68
2024/01/23 05:17:16;;;;;;;9.45;2.28;;;;;;;6.78;73.42;101526.00;4101541;28;20489;-68
2024/01/23 05:19:19;;;;;;;18.08;3.95;;;;;;;6.70;73.20;101521.28;4099063;28;20078;-68
2024/01/23 05:21:22;;;;;;;13.07;3.20;;;;;;;6.70;73.08;101518.69;4100546;28;20121;-68
2024/01/23 05:23:26;;;;;;;14.70;4.25;;;;;;;6.67;73.57;101532.34;4101771;29;20107;-68
2024/01/23 05:25:31;;;;;;;16.48;3.60;;;;;;;6.67;73.29;101536.66;4100653;29;20043;-68
2024/01/23 05:27:33;;;;;;;16.05;3.13;;;;;;;6.67;73.56;101532.34;4101797;28;20039;-68
2024/01/23 05:29:37;;;;;;;13.68;2.83;;;;;;;6.73;73.37;101535.25;4097687;28;20039;-68
2024/01/23 05:31:40;;;;;;;14.32;3.10;;;;;;;6.71;73.23;101546.31;4100992;28;20051;-69
2024/01/23 05:33:42;;;;;;;11.82;3.33;;;;;;;6.73;73.33;101549.84;4106440;28;20109;-68
2024/01/23 05:35:50;;;;;;;12.65;2.72;;;;;;;6.76;73.09;101555.16;4109523;28;20047;-68
2024/01/23 05:37:54;;;;;;;11.73;2.85;;;;;;;6.70;73.36;101567.81;4100574;28;20051;-68
2024/01/23 05:39:56;;;;;;;12.85;3.08;;;;;;;6.74;73.26;101564.56;4092576;28;20050;-68
2024/01/23 05:42:00;;;;;;;12.57;2.70;;;;;;;6.71;73.36;101569.59;4105255;28;20035;-66
2024/01/23 05:44:03;;;;;;;13.23;3.78;;;;;;;6.74;72.72;101575.75;4106026;28;20054;-67
2024/01/23 05:46:06;;;;;;;9.55;2.83;;;;;;;6.75;72.57;101582.72;4099090;28;20039;-67
2024/01/23 05:48:08;;;;;;;20.15;3.83;;;;;;;6.74;72.69;101580.94;4109350;28;20090;-67
2024/01/23 05:50:10;;;;;;;15.90;4.53;;;;;;;6.73;72.88;101584.34;4107834;28;20094;-67
2024/01/23 05:52:14;;;;;;;9.20;2.25;;;;;;;6.77;72.84;101586.25;4101258;28;20082;-67
2024/01/23 05:54:18;;;;;;;20.27;3.63;;;;;;;6.82;72.50;101589.94;4117310;28;20509;-67
2024/01/23 05:56:20;;;;;;;15.52;2.20;;;;;;;6.86;72.28;101590.97;4102406;28;20050;-67
2024/01/23 05:58:24;;;;;;;15.05;2.67;;;;;;;6.87;72.29;101589.28;4100471;28;20383;-67
2024/01/23 06:00:27;;;;;;;13.60;2.50;;;;;;;6.84;72.10;101591.72;4099968;29;20075;-68
2024/01/23 06:02:29;;;;;;;13.82;2.58;;;;;;;6.89;72.16;101596.31;4099894;29;20035;-68
2024/01/23 06:04:32;;;;;;;13.82;3.13;;;;;;;6.92;71.61;101601.63;4100068;29;20556;-67
2024/01/23 06:06:40;;;;;;;13.27;2.67;;;;;;;6.89;71.91;101606.66;4101226;29;20043;-68
2024/01/23 06:08:43;;;;;;;12.93;2.65;;;;;;;6.88;71.95;101607.47;4099102;29;20066;-68
2024/01/23 06:10:47;;;;;;;14.20;3.30;;;;;;;6.90;71.34;101621.31;4101130;28;20042;-69
2024/01/23 06:12:50;;;;;;;15.63;2.85;;;;;;;6.90;71.45;101621.31;4100865;28;20509;-68
2024/01/23 06:14:54;;;;;;;17.27;2.90;;;;;;;6.94;71.47;101624.97;4100122;28;20122;-68
2024/01/23 06:16:57;;;;;;;16.77;3.47;;;;;;;6.94;71.22;101627.53;4100975;28;20597;-68
2024/01/23 06:18:59;;;;;;;14.35;2.97;;;;;;;6.93;71.15;101644.75;4100110;29;20489;-68
2024/01/23 06:21:02;;;;;;;17.30;3.20;;;;;;;6.89;70.61;101655.78;4099371;29;20047;-69
2024/01/23 06:23:05;;;;;;;16.67;3.50;;;;;;;6.92;71.04;101665.34;4099801;29;20050;-68
2024/01/23 06:25:09;;;;;;;10.90;2.60;;;;;;;6.98;70.57;101658.78;4100899;28;20039;-68
2024/01/23 06:27:12;;;;;;;11.10;2.85;;;;;;;6.95;70.35;101671.56;4100956;28;20134;-68
2024/01/23 06:29:15;;;;;;;13.77;3.17;;;;;;;6.97;70.72;101674.22;4098880;29;20043;-68
2024/01/23 06:31:25;;;;;;;10.55;3.17;;;;;;;6.97;70.14;101679.41;4099780;28;20054;-68
2024/01/23 06:33:28;;;;;;;9.50;2.40;;;;;;;6.96;69.92;101677.63;4100831;29;20134;-68
2024/01/23 06:35:31;;;;;;;9.23;2.90;;;;;;;7.03;70.14;101681.41;4099066;28;20422;-68
2024/01/23 06:37:35;;;;;;;13.73;2.53;;;;;;;7.02;70.53;101684.78;4108601;28;20039;-68
2024/01/23 06:39:39;;;;;;;10.65;2.90;;;;;;;7.03;70.14;101689.16;4106110;28;20131;-68
2024/01/23 06:41:41;;;;;;;12.45;3.20;;;;;;;7.01;70.20;101695.94;4100316;29;20134;-68
2024/01/23 06:43:44;;;;;;;11.95;2.67;;;;;;;6.96;69.80;101704.34;4099484;29;20035;-68
2024/01/23 06:45:47;;;;;;;13.50;2.72;;;;;;;6.96;69.79;101712.09;4100534;29;20071;-68
2024/01/23 06:47:52;;;;;;;13.68;3.83;;;;;;;6.97;70.13;101715.59;4100664;28;20054;-68
2024/01/23 06:49:55;;;;;;;13.68;2.80;;;;;;;6.98;69.66;101720.84;4100613;29;20088;-68
2024/01/23 06:51:58;;;;;;;12.57;2.83;;;;;;;6.95;69.84;101735.28;4099424;29;20074;-68
2024/01/23 06:54:02;;;;;;;11.77;2.63;;;;;;;6.89;69.10;101730.72;4100465;29;20043;-68
2024/01/23 06:56:09;;;;;;;9.48;2.55;;;;;;;6.91;69.15;101734.28;4100532;29;20043;-68
2024/01/23 06:58:11;;;;;;;13.48;2.70;;;;;;;6.92;68.65;101740.31;4098092;29;20138;-68
2024/01/23 07:00:14;;;;;;;15.02;3.60;;;;;;;6.95;69.05;101746.53;4100365;28;20047;-68
2024/01/23 07:02:17;;;;;;;13.43;2.85;;;;;;;6.89;68.74;101753.09;4099822;29;20498;-68
2024/01/23 07:04:22;;;;;;;13.45;2.78;;;;;;;6.92;69.01;101755.81;4099942;29;20573;-68
2024/01/23 07:06:24;;;;;;;12.10;2.38;;;;;;;6.84;68.90;101755.44;4099598;29;20141;-68
2024/01/23 07:08:27;;;;;;;12.05;2.90;;;;;;;6.84;68.92;101747.69;4098696;28;20051;-68
2024/01/23 07:10:29;;;;;;;12.30;2.53;;;;;;;6.84;69.32;101758.03;4099849;29;20126;-68
2024/01/23 07:12:32;;;;;;;15.30;2.70;;;;;;;6.80;68.98;101763.84;4082782;29;20052;-68
2024/01/23 07:14:35;;;;;;;15.95;3.67;;;;;;;6.80;69.32;101775.09;4093898;28;20039;-68
2024/01/23 07:16:38;;;;;;;13.73;3.13;;;;;;;6.84;68.80;101781.28;4100028;28;20141;-68
2024/01/23 07:18:41;;;;;;;18.45;3.95;;;;;;;6.78;69.38;101783.56;4099477;28;20134;-68
2024/01/23 07:20:46;;;;;;;11.27;3.42;;;;;;;6.79;69.13;101794.00;4100050;28;20035;-68
2024/01/23 07:22:49;;;;;;;16.52;3.22;;;;;;;6.73;69.46;101798.84;4099776;28;20058;-68
2024/01/23 07:24:52;;;;;;;8.55;2.50;;;;;;;6.68;69.65;101796.84;4099241;29;20039;-68
2024/01/23 07:26:55;;;;;;;12.65;2.65;;;;;;;6.66;69.47;101796.75;4098649;29;20134;-68
2024/01/23 07:28:58;;;;;;;14.77;3.72;;;;;;;6.60;68.93;101801.59;4096561;28;20135;-68
2024/01/23 07:31:04;;;;;;;13.45;2.53;;;;;;;6.54;69.24;101809.94;4099023;28;20393;-68
2024/01/23 07:33:07;;;;;;;16.55;4.38;;;;;;;6.50;69.33;101813.16;4099868;28;20058;-68
2024/01/23 07:35:11;;;;;;;11.90;3.20;;;;;;;6.52;69.58;101818.41;4099961;29;20383;-68
2024/01/23 07:37:15;;;;;;;20.30;3.30;;;;;;;6.50;69.46;101822.59;4104702;28;20070;-68
2024/01/23 07:39:17;;;;;;;12.00;3.63;;;;;;;6.44;69.31;101830.94;4100694;28;20035;-68
2024/01/23 07:41:22;;;;;;;11.32;2.50;;;;;;;6.43;69.69;101848.09;4099153;29;20055;-68
2024/01/23 07:43:25;;;;;;;10.75;2.47;;;;;;;6.39;69.12;101841.00;4098474;28;20054;-69
2024/01/23 07:45:29;;;;;;;21.98;4.90;;;;;;;6.38;69.81;101848.66;4082869;29;20108;-68
2024/01/23 07:47:33;;;;;;;11.70;3.50;;;;;;;6.37;69.27;101849.47;4099805;28;20078;-68
2024/01/23 07:49:35;;;;;;;9.75;2.85;;;;;;;6.34;69.36;101857.03;4098907;29;20657;-68
2024/01/23 07:51:46;;;;;;;18.85;3.40;;;;;;;6.25;69.29;101855.75;4098085;29;20095;-68
2024/01/23 07:53:51;;;;;;;11.07;2.83;;;;;;;6.24;69.99;101863.41;4099944;28;20093;-68
2024/01/23 07:55:53;;;;;;;11.88;3.15;;;;;;;6.25;69.79;101855.75;4099613;29;20054;-68
2024/01/23 07:57:56;;;;;;;13.18;3.88;;;;;;;6.23;69.82;101865.09;4098433;28;20501;-68
2024/01/23 07:59:59;;;;;;;16.08;2.92;;;;;;;6.25;70.35;101863.50;4099488;29;20138;-68
2024/01/23 08:02:02;;;;;;;12.95;3.00;;;;;;;6.28;69.89;101863.66;4099152;29;20097;-68
2024/01/23 08:04:03;;;;;;;18.85;2.90;;;;;;;6.35;70.38;101858.81;4098353;29;20079;-68
2024/01/23 08:06:07;;;;;;;14.73;4.53;;;;;;;6.34;70.46;101868.28;4098610;28;20557;-68
2024/01/23 08:08:09;;;;;;;14.88;3.47;;;;;;;6.37;70.21;101857.22;4098445;29;21721;-69
2024/01/23 08:10:13;;;;;;;17.52;3.70;;;;;;;6.43;70.23;101857.56;4082116;29;20055;-68
2024/01/23 08:12:16;;;;;;;16.45;3.35;;;;;;;6.47;69.81;101846.59;4099003;29;20457;-68
2024/01/23 08:14:19;;;;;;;17.70;3.05;;;;;;;6.49;70.01;101854.41;4098358;29;20497;-68
2024/01/23 08:16:22;;;;;;;13.45;3.45;;;;;;;6.54;69.85;101851.28;4098147;29;20050;-68
2024/01/23 08:18:25;;;;;;;12.85;2.75;;;;;;;6.62;69.68;101857.72;4097258;28;20164;-68
2024/01/23 08:20:28;;;;;;;14.40;3.22;;;;;;;6.64;70.03;101869.03;4099214;28;20043;-68
2024/01/23 08:22:31;;;;;;;17.08;4.25;;;;;;;6.61;69.67;101863.72;4099079;28;20039;-68
2024/01/23 08:24:35;;;;;;;14.25;3.42;;;;;;;6.67;69.66;101876.03;4098277;29;20039;-69
2024/01/23 08:26:39;;;;;;;14.55;3.25;;;;;;;6.62;69.59;101883.56;4099326;28;20402;-68
2024/01/23 08:28:42;;;;;;;15.50;3.65;;;;;;;6.60;69.62;101874.84;4097407;29;20066;-68
2024/01/23 08:30:45;;;;;;;15.63;3.15;;;;;;;6.67;69.62;101873.47;4098452;28;20040;-68
2024/01/23 08:32:48;;;;;;;14.02;3.13;;;;;;;6.73;69.47;101885.81;4097813;29;20062;-68
2024/01/23 08:34:51;;;;;;;12.18;3.03;;;;;;;6.68;69.67;101889.88;4099359;28;20581;-68
2024/01/23 08:36:54;;;;;;;14.10;2.78;;;;;;;6.72;69.59;101887.53;4098232;28;20146;-68
2024/01/23 08:38:57;;;;;;;17.17;3.88;;;;;;;6.69;69.71;101886.47;4106955;28;20094;-68
2024/01/23 08:41:00;;;;;;;12.35;3.53;;;;;;;6.71;69.82;101884.88;4098743;29;20134;-69
2024/01/23 08:43:05;;;;;;;9.13;2.92;;;;;;;6.71;69.55;101890.91;4096136;29;20502;-69
2024/01/23 08:45:08;;;;;;;21.73;3.90;;;;;;;6.73;69.94;101878.97;4094810;29;20039;-68
2024/01/23 08:47:11;;;;;;;18.60;3.60;;;;;;;6.73;69.81;101890.97;4099230;29;20134;-68
2024/01/23 08:49:15;;;;;;;12.23;3.35;;;;;;;6.78;69.64;101894.72;4097642;28;20039;-68
2024/01/23 08:51:18;;;;;;;15.27;3.65;;;;;;;6.81;69.73;101892.28;4098800;28;20498;-69
2024/01/23 08:53:22;;;;;;;12.52;2.80;;;;;;;6.82;69.94;101896.66;4099166;29;20039;-68
2024/01/23 08:55:25;;;;;;;17.48;3.28;;;;;;;6.85;69.64;101894.22;4100466;28;20039;-68
2024/01/23 08:57:28;;;;;;;13.43;3.05;;;;;;;6.86;69.94;101893.41;4102222;29;20050;-68
2024/01/23 08:59:33;;;;;;;10.57;3.25;;;;;;;6.89;70.30;101903.94;4100934;29;20039;-69
2024/01/23 09:01:36;;;;;;;13.57;3.20;;;;;;;6.94;69.74;101906.75;4101020;28;20057;-68
2024/01/23 09:03:38;;;;;;;15.88;3.85;;;;;;;6.97;70.12;101909.50;4098607;28;20040;-68
2024/01/23 09:05:42;;;;;;;13.13;2.95;;;;;;;7.02;69.67;101912.31;4102009;28;20047;-68
2024/01/23 09:07:46;;;;;;;12.93;3.35;;;;;;;7.09;69.97;101917.88;4099637;28;20039;-68
2024/01/23 09:09:49;;;;;;;18.58;4.15;;;;;;;7.17;69.39;101918.28;4100762;29;20050;-68
2024/01/23 09:11:52;;;;;;;15.15;3.35;;;;;;;7.20;69.69;101928.78;4101466;28;20058;-68
2024/01/23 09:13:55;;;;;;;13.05;2.95;;;;;;;7.27;69.22;101930.91;4100251;28;20051;-68
2024/01/23 09:16:00;;;;;;;15.98;3.15;;;;;;;7.36;69.12;101939.91;4084703;29;20051;-68
2024/01/23 09:18:03;;;;;;;13.45;3.40;;;;;;;7.42;68.23;101937.66;4100741;29;20039;-69
2024/01/23 09:20:08;;;;;;;13.50;3.40;;;;;;;7.45;68.16;101945.56;4100543;29;20050;-68
2024/01/23 09:22:12;;;;;;;16.83;3.55;;;;;;;7.51;67.68;101948.47;4101509;28;20054;-68
2024/01/23 09:24:15;;;;;;;;;;;;;;;7.51;67.57;101940.72;4101357;28;20150;-68
2024/01/23 09:26:18;;;;;;;10.77;2.15;;;;;;;7.54;67.47;101946.03;4101720;29;19996;-69
2024/01/23 09:28:21;;;;;;;7.93;2.22;;;;;;;7.59;66.96;101949.72;4101313;29;20131;-68
2024/01/23 09:30:24;;;;;;;11.05;2.67;;;;;;;7.64;66.93;101956.03;4100715;29;20130;-68
2024/01/23 09:32:31;;;;;;;12.68;2.53;;;;;;;7.71;66.92;101964.09;4101321;29;20051;-68
2024/01/23 09:34:36;;;;;;;15.32;3.17;;;;;;;7.75;66.56;101950.50;4084582;29;20387;-68